Time;durP1;ratioP1;P1;durP2;ratioP2;P2;SDS_P1;SDS_P2;PMS_P1;PMS_P2;Temp;Humidity;BMP_temperature;BMP_pressure;BME280_temperature;BME280_humidity;BME280_pressure;Samples;Min_cycle;Max_cycle;Signal;HPM_P1;HPM_P2
2022/08/17 00:00:38;;;;;;;26.73;18.08;;;;;;;21.85;52.11;99897.72;6226628;22;20016;-69
2022/08/17 00:03:16;;;;;;;28.40;19.00;;;;;;;21.87;51.70;99899.22;6196503;22;20034;-68
2022/08/17 00:06:16;;;;;;;27.73;20.38;;;;;;;21.79;51.92;99896.53;6228444;22;20379;-67
2022/08/17 00:08:52;;;;;;;30.63;19.98;;;;;;;21.73;52.33;99889.09;6080671;23;20028;-68
2022/08/17 00:11:29;;;;;;;27.88;17.50;;;;;;;21.70;52.38;99892.16;6081046;23;20018;-68
2022/08/17 00:13:58;;;;;;;26.75;18.15;;;;;;;21.66;52.71;99886.25;6056517;23;20014;-67
2022/08/17 00:16:30;;;;;;;24.48;18.17;;;;;;;21.66;52.54;99893.56;6082369;23;20018;-69
2022/08/17 00:18:55;;;;;;;23.23;17.42;;;;;;;21.63;52.58;99886.59;6107438;23;20044;-67
2022/08/17 00:21:21;;;;;;;27.15;17.85;;;;;;;21.62;52.88;99889.47;6107499;23;20026;-67
2022/08/17 00:23:46;;;;;;;27.02;16.80;;;;;;;21.59;52.86;99889.81;6107410;23;20541;-68
2022/08/17 00:26:12;;;;;;;24.95;16.30;;;;;;;21.59;52.71;99896.09;6107274;23;20453;-68
2022/08/17 00:28:38;;;;;;;26.25;16.27;;;;;;;21.54;53.08;99887.66;6034424;23;20315;-69
2022/08/17 00:31:05;;;;;;;22.98;15.90;;;;;;;21.52;53.31;99899.69;6107454;23;20041;-68
2022/08/17 00:33:30;;;;;;;24.58;16.27;;;;;;;21.48;53.25;99898.31;6105138;23;20025;-71
2022/08/17 00:35:56;;;;;;;23.52;16.27;;;;;;;21.45;53.24;99898.66;6058522;23;20358;-69
2022/08/17 00:38:22;;;;;;;26.25;17.98;;;;;;;21.42;53.11;99896.31;6107263;23;20025;-70
2022/08/17 00:40:51;;;;;;;26.95;18.75;;;;;;;21.41;53.16;99891.91;6058370;23;20013;-70
2022/08/17 00:43:33;;;;;;;26.05;17.90;;;;;;;21.44;53.04;99891.56;6117981;22;20418;-68
2022/08/17 00:46:01;;;;;;;34.00;19.42;;;;;;;21.38;53.20;99891.22;6202757;22;20020;-67
2022/08/17 00:48:26;;;;;;;32.13;20.30;;;;;;;21.36;53.17;99893.28;6230343;22;20016;-67
2022/08/17 00:51:07;;;;;;;34.72;21.65;;;;;;;21.37;53.34;99886.81;6230308;22;20019;-66
2022/08/17 00:53:33;;;;;;;27.13;18.42;;;;;;;21.26;53.86;99879.06;6230004;22;20012;-65
2022/08/17 00:56:02;;;;;;;29.48;20.02;;;;;;;21.24;53.94;99875.66;6229731;22;20024;-67
2022/08/17 00:58:27;;;;;;;31.95;19.75;;;;;;;21.20;53.94;99873.47;6203070;22;20094;-68
2022/08/17 01:00:52;;;;;;;27.02;20.25;;;;;;;21.19;53.98;99877.22;6201671;22;20397;-69
2022/08/17 01:03:24;;;;;;;29.45;19.70;;;;;;;21.21;53.95;99881.44;6229141;22;20015;-66
2022/08/17 01:05:52;;;;;;;26.85;19.33;;;;;;;21.16;53.70;99886.50;6202269;22;20019;-67
2022/08/17 01:08:20;;;;;;;28.45;20.80;;;;;;;21.14;53.76;99876.84;6229076;22;20777;-68
2022/08/17 01:10:52;;;;;;;29.35;21.48;;;;;;;21.11;54.02;99872.59;6228277;22;20355;-69
2022/08/17 01:13:16;;;;;;;30.00;20.05;;;;;;;21.08;54.37;99869.41;6228940;22;20016;-68
2022/08/17 01:16:06;;;;;;;32.00;18.38;;;;;;;21.09;54.21;99876.53;6173217;22;20026;-68
2022/08/17 01:18:32;;;;;;;25.33;18.85;;;;;;;21.02;54.24;99877.19;6174571;22;20023;-71
2022/08/17 01:21:06;;;;;;;30.63;19.58;;;;;;;21.06;54.42;99871.44;6229717;22;20011;-69
2022/08/17 01:23:30;;;;;;;28.95;19.13;;;;;;;21.01;54.84;99869.22;6230083;22;20020;-70
2022/08/17 01:26:00;;;;;;;30.40;19.80;;;;;;;21.01;54.56;99871.94;6152534;22;20082;-66
2022/08/17 01:28:29;;;;;;;29.55;19.10;;;;;;;20.96;55.06;99868.91;6229429;22;20020;-71
2022/08/17 01:30:55;;;;;;;25.83;16.75;;;;;;;20.95;55.08;99859.94;6203004;22;20027;-65
2022/08/17 01:33:19;;;;;;;23.42;16.38;;;;;;;20.95;55.10;99869.91;6230230;22;20020;-66
2022/08/17 01:35:44;;;;;;;25.83;17.40;;;;;;;20.93;55.23;99863.81;6230037;22;20516;-67
2022/08/17 01:38:09;;;;;;;25.85;16.50;;;;;;;20.93;55.22;99866.53;6229947;22;20027;-67
2022/08/17 01:40:34;;;;;;;24.48;17.58;;;;;;;20.88;55.46;99864.31;6202799;22;20012;-65
2022/08/17 01:43:09;;;;;;;25.42;16.08;;;;;;;20.87;55.39;99865.38;6202668;22;20017;-65
2022/08/17 01:45:39;;;;;;;21.35;17.55;;;;;;;20.86;55.37;99868.22;6230405;22;20015;-64
2022/08/17 01:48:04;;;;;;;32.58;17.90;;;;;;;20.83;55.72;99865.84;6177441;22;20011;-64
2022/08/17 01:50:41;;;;;;;23.52;17.35;;;;;;;20.82;55.67;99870.44;6229128;22;20019;-75
2022/08/17 01:53:14;;;;;;;24.58;19.08;;;;;;;20.80;55.62;99871.59;6202796;22;20019;-66
2022/08/17 01:55:45;;;;;;;31.63;18.27;;;;;;;20.75;55.82;99869.44;6176560;22;20024;-66
2022/08/17 01:58:10;;;;;;;24.20;19.10;;;;;;;20.66;56.05;99863.13;6202728;22;20106;-65
2022/08/17 02:00:39;;;;;;;24.20;19.20;;;;;;;20.65;55.96;99872.28;6177634;22;20016;-64
2022/08/17 02:03:04;;;;;;;30.42;22.90;;;;;;;20.70;55.68;99863.66;6177707;22;20022;-66
2022/08/17 02:05:30;;;;;;;28.35;22.20;;;;;;;20.61;55.81;99861.97;6229411;22;20459;-64
2022/08/17 02:07:55;;;;;;;29.50;21.33;;;;;;;20.60;55.99;99868.38;6202306;22;20455;-65
2022/08/17 02:10:19;;;;;;;30.52;20.88;;;;;;;20.60;55.96;99866.53;6202434;22;20451;-64
2022/08/17 02:12:44;;;;;;;32.70;21.58;;;;;;;20.66;55.53;99867.69;6229881;22;20015;-65
2022/08/17 02:15:11;;;;;;;31.45;22.23;;;;;;;20.65;55.67;99868.75;6230038;22;20011;-64
2022/08/17 02:17:36;;;;;;;29.58;21.45;;;;;;;20.72;55.31;99863.50;6203033;22;20090;-62
2022/08/17 02:20:00;;;;;;;27.00;20.23;;;;;;;20.71;55.36;99861.78;6202660;22;20051;-63
2022/08/17 02:22:27;;;;;;;30.25;22.55;;;;;;;20.63;55.41;99860.78;6202318;22;20076;-66
2022/08/17 02:24:53;;;;;;;28.65;19.80;;;;;;;20.65;55.47;99866.03;6229850;22;20023;-63
2022/08/17 02:27:18;;;;;;;29.10;20.35;;;;;;;20.79;55.22;99869.91;6202599;22;20073;-64
2022/08/17 02:29:43;;;;;;;33.22;20.98;;;;;;;20.69;55.37;99863.81;6229982;22;20065;-63
2022/08/17 02:32:15;;;;;;;29.80;19.40;;;;;;;20.64;55.41;99870.59;6177479;22;20015;-63
2022/08/17 02:34:40;;;;;;;32.35;19.52;;;;;;;20.59;55.73;99867.53;6229705;22;20023;-67
2022/08/17 02:37:05;;;;;;;27.40;17.58;;;;;;;20.62;55.64;99864.50;6202719;22;20050;-64
2022/08/17 02:39:30;;;;;;;21.65;16.75;;;;;;;20.64;55.68;99873.31;6229343;22;20054;-65
2022/08/17 02:42:02;;;;;;;26.65;17.42;;;;;;;20.69;55.61;99874.66;6202452;22;20011;-65
2022/08/17 02:44:27;;;;;;;26.05;16.83;;;;;;;20.67;55.65;99869.41;6202506;22;20418;-68
2022/08/17 02:46:52;;;;;;;22.92;16.25;;;;;;;20.69;55.63;99874.66;6176884;22;20386;-67
2022/08/17 02:49:16;;;;;;;19.42;15.43;;;;;;;20.71;55.50;99878.03;6202378;22;20343;-66
2022/08/17 02:51:41;;;;;;;23.58;14.82;;;;;;;20.74;55.39;99870.44;6177382;22;20038;-68
2022/08/17 02:54:06;;;;;;;31.15;16.40;;;;;;;20.83;55.06;99861.28;6177059;22;20019;-62
2022/08/17 02:56:30;;;;;;;24.08;15.65;;;;;;;20.87;54.95;99864.50;6201847;22;20019;-64
2022/08/17 02:58:55;;;;;;;22.23;14.50;;;;;;;20.90;54.80;99867.72;6202319;22;20508;-62
2022/08/17 03:01:20;;;;;;;24.23;14.05;;;;;;;20.97;54.72;99870.59;6229403;22;20098;-63
2022/08/17 03:03:45;;;;;;;26.02;15.77;;;;;;;21.10;54.06;99861.94;6202080;22;20022;-63
2022/08/17 03:06:10;;;;;;;21.20;14.48;;;;;;;21.15;53.52;99873.97;6201987;22;20023;-65
2022/08/17 03:08:36;;;;;;;19.25;15.48;;;;;;;21.19;53.52;99864.50;6176599;22;20447;-65
2022/08/17 03:11:01;;;;;;;25.33;15.80;;;;;;;21.23;53.14;99865.84;6201980;22;20026;-67
2022/08/17 03:13:26;;;;;;;23.40;16.02;;;;;;;21.32;53.04;99862.09;6176189;22;20016;-63
2022/08/17 03:15:51;;;;;;;19.88;15.20;;;;;;;21.29;52.86;99862.44;6228738;22;20019;-63
2022/08/17 03:18:18;;;;;;;20.77;15.05;;;;;;;21.47;52.69;99866.78;6228780;22;20022;-65
2022/08/17 03:20:43;;;;;;;22.90;15.23;;;;;;;21.38;52.87;99874.13;6201855;22;20077;-73
2022/08/17 03:23:08;;;;;;;23.00;15.27;;;;;;;21.41;53.50;99872.94;6200926;22;20020;-64
2022/08/17 03:25:37;;;;;;;22.30;16.42;;;;;;;21.54;53.22;99865.94;6228660;22;20026;-65
2022/08/17 03:28:03;;;;;;;21.35;15.73;;;;;;;21.57;53.11;99859.28;6228769;22;20400;-63
2022/08/17 03:30:28;;;;;;;30.45;16.65;;;;;;;21.66;52.37;99859.13;6228636;22;20011;-63
2022/08/17 03:32:56;;;;;;;24.98;16.80;;;;;;;21.70;52.18;99867.72;6228858;22;20065;-64
2022/08/17 03:35:24;;;;;;;31.77;20.30;;;;;;;21.74;52.05;99861.78;6201674;22;20505;-64
2022/08/17 03:37:48;;;;;;;24.42;17.95;;;;;;;21.85;51.78;99865.13;6228423;22;20022;-64
2022/08/17 03:40:14;;;;;;;33.50;21.27;;;;;;;21.87;51.49;99860.38;6228888;22;20020;-65
2022/08/17 03:42:39;;;;;;;29.02;21.02;;;;;;;21.94;51.28;99858.66;6201919;22;20094;-64
2022/08/17 03:45:09;;;;;;;30.42;19.80;;;;;;;22.03;51.34;99858.44;6228607;22;20455;-64
2022/08/17 03:58:47;;;;;;;39.45;28.80;;;;;;;22.61;49.26;99862.50;6178534;22;20443;-64
2022/08/17 04:01:12;;;;;;;39.30;29.02;;;;;;;22.70;48.97;99864.13;6231243;22;20387;-64
2022/08/17 04:03:37;;;;;;;36.13;27.00;;;;;;;22.74;49.08;99859.16;6231149;22;20043;-66
2022/08/17 04:06:02;;;;;;;38.08;26.20;;;;;;;22.84;49.00;99867.94;6203653;22;20023;-65
2022/08/17 04:08:28;;;;;;;42.53;28.23;;;;;;;23.02;48.19;99864.91;6230503;22;20105;-65
2022/08/17 04:10:54;;;;;;;40.97;28.95;;;;;;;23.18;48.36;99864.75;6203810;22;20039;-65
2022/08/17 04:13:19;;;;;;;44.78;29.90;;;;;;;23.34;47.62;99859.16;6178528;22;20022;-65
2022/08/17 04:15:47;;;;;;;42.60;33.05;;;;;;;23.47;47.17;99858.50;6203407;22;20020;-65
2022/08/17 04:18:12;;;;;;;54.60;35.42;;;;;;;23.63;46.27;99860.22;6230642;22;20011;-66
2022/08/17 04:20:37;;;;;;;49.40;34.40;;;;;;;23.77;46.10;99852.03;6203968;22;20022;-65
2022/08/17 04:23:08;;;;;;;47.22;32.75;;;;;;;23.91;46.28;99863.09;6230822;22;20018;-65
2022/08/17 04:25:36;;;;;;;51.92;33.30;;;;;;;24.16;45.53;99867.16;6178517;22;20020;-65
2022/08/17 04:28:01;;;;;;;51.90;35.83;;;;;;;24.43;44.69;99865.63;6203381;22;20024;-66
2022/08/17 04:30:28;;;;;;;46.38;34.00;;;;;;;24.63;44.45;99869.41;6203344;22;20016;-65
2022/08/17 04:33:04;;;;;;;49.85;37.45;;;;;;;24.84;43.83;99868.53;6230584;22;20020;-67
2022/08/17 04:35:31;;;;;;;47.60;36.65;;;;;;;25.02;43.21;99865.38;6230897;22;20099;-66
2022/08/17 04:37:57;;;;;;;52.03;37.63;;;;;;;25.11;43.18;99862.31;6153535;22;20012;-67
2022/08/17 04:43:09;;;;;;;59.53;39.53;;;;;;;25.07;43.01;99854.72;6178064;22;20020;-65
2022/08/17 04:45:41;;;;;;;58.67;38.67;;;;;;;24.88;43.32;99869.84;6178031;22;20015;-66
2022/08/17 04:48:06;;;;;;;62.22;42.90;;;;;;;24.62;43.03;99864.97;6153234;22;20016;-66
2022/08/17 04:50:34;;;;;;;60.45;43.30;;;;;;;24.45;43.46;99861.69;6203368;22;20016;-67
2022/08/17 04:52:59;;;;;;;55.97;40.92;;;;;;;24.37;44.27;99863.69;6203332;22;20015;-65
2022/08/17 04:55:23;;;;;;;63.33;45.45;;;;;;;24.63;43.35;99863.09;6177708;22;20066;-67
2022/08/17 04:57:48;;;;;;;61.80;45.05;;;;;;;24.69;43.57;99856.88;6230249;22;20012;-67
2022/08/17 05:00:13;;;;;;;62.65;45.33;;;;;;;24.69;42.60;99862.34;6177811;22;20336;-67
2022/08/17 05:02:46;;;;;;;57.45;41.65;;;;;;;24.88;42.31;99864.38;6203046;22;20475;-67
2022/08/17 05:05:11;;;;;;;62.78;45.65;;;;;;;24.83;42.35;99856.78;6230009;22;20482;-67
2022/08/17 05:07:35;;;;;;;66.18;45.20;;;;;;;25.06;42.49;99853.03;6177689;22;20451;-67
2022/08/17 05:10:00;;;;;;;62.80;46.80;;;;;;;25.45;41.87;99850.59;6203189;22;20034;-67
2022/08/17 05:12:25;;;;;;;63.35;45.47;;;;;;;25.81;41.10;99842.22;6230276;22;20019;-67
2022/08/17 05:14:50;;;;;;;58.25;43.40;;;;;;;26.32;39.97;99845.34;6202878;22;20102;-66
2022/08/17 05:17:15;;;;;;;54.28;42.65;;;;;;;26.83;39.49;99835.75;6203148;22;20457;-66
2022/08/17 05:19:40;;;;;;;59.72;43.47;;;;;;;27.30;37.60;99842.94;6230089;22;20524;-66
2022/08/17 05:22:05;;;;;;;58.10;43.63;;;;;;;27.65;36.70;99835.31;6203319;22;20019;-66
2022/08/17 05:24:30;;;;;;;59.55;43.60;;;;;;;27.93;36.64;99841.31;6178078;22;20020;-66
2022/08/17 05:26:54;;;;;;;55.83;42.15;;;;;;;28.11;36.23;99840.56;6177527;22;20042;-66
2022/08/17 05:29:19;;;;;;;63.88;44.00;;;;;;;28.19;36.05;99829.41;6203062;22;20047;-66
2022/08/17 05:31:44;;;;;;;58.17;40.28;;;;;;;28.33;35.30;99838.41;6203007;22;20043;-66
2022/08/17 05:34:10;;;;;;;62.13;44.42;;;;;;;28.30;35.37;99839.69;6229889;22;20019;-67
2022/08/17 05:36:37;;;;;;;56.33;42.30;;;;;;;28.36;35.35;99832.47;6202915;22;20524;-66
2022/08/17 05:39:02;;;;;;;61.53;41.33;;;;;;;28.57;35.31;99840.34;6202871;22;20019;-66
2022/08/17 05:41:26;;;;;;;52.45;40.92;;;;;;;28.77;34.28;99840.22;6202750;22;20022;-66
2022/08/17 05:43:51;;;;;;;53.85;40.28;;;;;;;28.87;34.06;99838.69;6229830;22;20062;-66
2022/08/17 05:46:22;;;;;;;50.60;37.60;;;;;;;29.11;34.16;99827.94;6202873;22;20073;-67
2022/08/17 05:48:50;;;;;;;49.45;37.80;;;;;;;29.38;33.26;99831.28;6203055;22;20012;-66
2022/08/17 05:51:40;;;;;;;46.20;36.10;;;;;;;29.74;32.76;99822.22;6203027;22;20011;-66
2022/08/17 05:54:20;;;;;;;50.35;36.10;;;;;;;30.00;32.78;99834.81;6202744;22;20533;-66
2022/08/17 05:57:22;;;;;;;46.97;35.70;;;;;;;30.28;32.17;99833.16;6202655;22;20015;-67
2022/08/17 06:00:02;;;;;;;53.47;35.42;;;;;;;30.81;31.36;99834.31;6202016;22;20019;-66
2022/08/17 06:02:57;;;;;;;44.67;34.28;;;;;;;31.49;30.47;99831.84;6239826;22;20562;-67
2022/08/17 06:05:52;;;;;;;44.67;31.55;;;;;;;32.03;29.75;99829.75;6202361;22;20402;-67
2022/08/17 06:08:28;;;;;;;47.40;31.48;;;;;;;31.94;29.64;99839.50;6176986;22;20021;-67
2022/08/17 06:10:59;;;;;;;42.88;31.35;;;;;;;31.22;29.96;99839.78;6177356;22;20020;-67
2022/08/17 06:13:30;;;;;;;43.33;30.58;;;;;;;30.87;30.40;99828.69;6229431;22;20019;-69
2022/08/17 06:16:03;;;;;;;33.80;27.48;;;;;;;31.11;30.62;99837.84;6202445;22;20011;-65
2022/08/17 06:18:35;;;;;;;37.72;28.80;;;;;;;31.75;29.38;99838.78;6229609;22;20011;-66
2022/08/17 06:21:05;;;;;;;34.83;27.95;;;;;;;32.05;28.97;99842.22;6229423;22;20027;-66
2022/08/17 06:23:37;;;;;;;37.28;27.60;;;;;;;31.97;29.01;99844.50;6202282;22;20024;-67
2022/08/17 06:26:23;;;;;;;33.30;24.45;;;;;;;31.94;28.79;99836.72;6202594;22;20482;-65
2022/08/17 06:28:54;;;;;;;44.67;24.45;;;;;;;31.97;28.91;99836.22;6177214;22;20356;-66
2022/08/17 06:31:29;;;;;;;34.28;23.58;;;;;;;32.40;28.45;99844.84;6202244;22;20142;-66
2022/08/17 06:33:56;;;;;;;31.42;21.70;;;;;;;32.95;27.43;99843.38;6229183;22;20020;-66
2022/08/17 06:36:41;;;;;;;36.50;24.45;;;;;;;33.68;26.88;99845.06;6202447;22;20394;-66
2022/08/17 06:39:27;;;;;;;36.75;24.40;;;;;;;34.29;26.23;99834.84;6229416;22;20043;-66
2022/08/17 06:42:10;;;;;;;33.80;23.92;;;;;;;34.71;25.37;99840.53;6202636;22;20039;-65
2022/08/17 06:45:02;;;;;;;34.15;22.63;;;;;;;35.23;24.79;99838.75;6229260;22;20347;-66
2022/08/17 06:47:58;;;;;;;32.95;22.20;;;;;;;35.26;24.63;99841.03;6177671;22;20543;-65
2022/08/17 06:50:54;;;;;;;25.50;20.67;;;;;;;35.60;25.00;99849.03;6106300;23;20033;-67
2022/08/17 06:53:41;;;;;;;29.63;21.00;;;;;;;35.86;23.62;99841.69;6019491;23;20375;-66
2022/08/17 06:56:12;;;;;;;29.00;18.75;;;;;;;36.07;23.50;99845.41;6019499;23;20022;-66
2022/08/17 06:58:40;;;;;;;28.20;19.83;;;;;;;36.23;23.26;99836.88;6019188;23;20014;-65
2022/08/17 07:01:19;;;;;;;37.53;20.30;;;;;;;36.50;23.19;99831.09;6019680;23;20025;-65
2022/08/17 07:03:44;;;;;;;30.60;18.15;;;;;;;36.85;22.85;99843.41;6019325;23;20015;-65
2022/08/17 07:06:20;;;;;;;20.88;16.65;;;;;;;36.89;22.48;99850.91;6029095;23;20030;-65
2022/08/17 07:09:06;;;;;;;23.70;16.65;;;;;;;36.57;22.59;99837.22;5995230;23;20196;-65
2022/08/17 07:12:04;;;;;;;19.73;15.65;;;;;;;36.59;22.75;99839.72;6019491;23;20509;-65
2022/08/17 07:14:56;;;;;;;26.42;17.70;;;;;;;36.52;22.77;99833.63;6014057;23;20022;-65
2022/08/17 07:17:23;;;;;;;32.10;17.75;;;;;;;36.55;23.00;99835.84;6023200;23;20026;-65
2022/08/17 07:19:51;;;;;;;20.88;15.05;;;;;;;37.06;22.53;99823.66;6019286;23;20093;-64
2022/08/17 07:22:25;;;;;;;22.48;15.05;;;;;;;37.36;21.47;99822.00;6019301;23;20404;-65
2022/08/17 07:24:58;;;;;;;;;;;;;;;38.39;21.66;99824.94;5995945;23;20466;-66
2022/08/17 07:27:27;;;;;;;17.13;12.60;;;;;;;38.79;20.45;99823.03;6073655;23;20352;-66
2022/08/17 07:29:55;;;;;;;18.70;13.88;;;;;;;38.89;19.96;99825.75;6166813;22;20065;-66
2022/08/17 07:32:30;;;;;;;19.23;14.57;;;;;;;38.97;20.25;99822.34;6201789;22;20090;-67
2022/08/17 07:34:59;;;;;;;20.23;13.23;;;;;;;39.11;19.47;99817.78;6229010;22;20019;-67
2022/08/17 07:37:24;;;;;;;18.67;14.02;;;;;;;39.39;19.49;99812.50;6176232;22;20038;-67
2022/08/17 07:39:49;;;;;;;20.85;12.50;;;;;;;39.49;19.02;99813.25;6228867;22;20019;-67
2022/08/17 07:42:14;;;;;;;23.60;13.80;;;;;;;39.70;19.00;99811.03;6201694;22;20015;-67
2022/08/17 07:44:54;;;;;;;22.95;12.80;;;;;;;40.12;19.28;99815.81;6151288;22;20355;-66
2022/08/17 07:50:24;;;;;;;16.35;12.35;;;;;;;40.07;18.56;99809.50;6228762;22;20097;-66
2022/08/17 07:52:48;;;;;;;16.08;12.57;;;;;;;39.72;18.63;99808.78;6201935;22;20016;-66
2022/08/17 07:55:33;;;;;;;14.95;11.15;;;;;;;40.09;18.55;99807.19;6176504;22;20050;-67
2022/08/17 07:57:58;;;;;;;17.00;12.77;;;;;;;39.48;18.60;99803.19;6228841;22;20113;-65
2022/08/17 08:00:24;;;;;;;17.75;12.25;;;;;;;39.47;18.51;99801.53;6228932;22;20019;-66
2022/08/17 08:03:00;;;;;;;14.45;11.65;;;;;;;39.79;19.22;99806.44;6176110;22;20077;-66
2022/08/17 08:05:28;;;;;;;15.25;12.38;;;;;;;40.44;18.51;99809.50;6228686;22;20077;-67
2022/08/17 08:08:01;;;;;;;19.17;13.63;;;;;;;40.62;18.48;99814.28;6201463;22;20332;-66
2022/08/17 08:10:42;;;;;;;14.05;11.80;;;;;;;40.87;17.69;99810.25;6201457;22;20050;-65
2022/08/17 08:13:12;;;;;;;13.52;11.57;;;;;;;41.02;17.57;99809.16;6228708;22;20020;-66
2022/08/17 08:15:41;;;;;;;17.55;11.30;;;;;;;41.59;16.87;99807.84;6201708;22;20015;-67
2022/08/17 08:18:26;;;;;;;13.07;11.45;;;;;;;41.46;17.00;99802.22;6229198;22;20019;-67
2022/08/17 08:21:08;;;;;;;11.90;10.48;;;;;;;41.55;16.52;99808.78;6228753;22;20046;-66
2022/08/17 08:23:36;;;;;;;12.23;10.63;;;;;;;41.74;16.41;99805.91;6228637;22;20039;-66
2022/08/17 08:26:22;;;;;;;18.80;11.13;;;;;;;42.13;16.82;99797.78;6228865;22;20046;-65
2022/08/17 08:29:21;;;;;;;15.32;11.40;;;;;;;42.59;16.07;99808.78;6201660;22;20016;-66
2022/08/17 08:31:56;;;;;;;11.98;9.82;;;;;;;43.14;15.87;99802.06;6195200;22;20072;-66
2022/08/17 08:34:48;;;;;;;13.82;11.05;;;;;;;44.07;14.82;99803.69;6201564;22;20022;-66
2022/08/17 08:37:33;;;;;;;18.13;10.90;;;;;;;44.39;14.33;99804.41;6229531;22;20473;-66
2022/08/17 08:40:07;;;;;;;13.85;11.10;;;;;;;44.32;14.30;99807.69;6176261;22;20102;-65
2022/08/17 08:43:02;;;;;;;12.70;10.07;;;;;;;44.06;14.23;99795.56;6230439;22;20354;-66
2022/08/17 08:45:31;;;;;;;12.80;10.20;;;;;;;43.51;14.04;99801.66;6230915;22;20107;-66
2022/08/17 08:48:27;;;;;;;12.63;10.95;;;;;;;42.98;14.59;99804.47;6230481;22;20020;-66
2022/08/17 08:51:06;;;;;;;10.95;9.77;;;;;;;41.97;15.25;99796.47;6152976;22;20098;-66
2022/08/17 08:53:58;;;;;;;20.27;9.95;;;;;;;42.27;15.50;99792.13;6203534;22;20035;-65
2022/08/17 08:56:26;;;;;;;17.43;11.13;;;;;;;42.38;15.11;99788.81;6230565;22;20046;-65
2022/08/17 08:59:00;;;;;;;12.48;9.68;;;;;;;42.17;15.07;99786.78;6177796;22;20087;-66
2022/08/17 09:01:43;;;;;;;15.73;8.15;;;;;;;41.80;15.18;99785.88;6152859;22;20026;-65
2022/08/17 09:04:23;;;;;;;10.80;8.55;;;;;;;42.56;14.89;99789.78;6230192;22;20056;-66
2022/08/17 09:07:27;;;;;;;13.65;9.68;;;;;;;43.52;14.36;99796.84;6178182;22;20879;-66
2022/08/17 09:10:12;;;;;;;11.13;8.55;;;;;;;43.62;14.02;99790.97;6230323;22;20517;-66
2022/08/17 09:13:11;;;;;;;10.23;9.27;;;;;;;44.23;13.79;99795.63;6230130;22;20020;-66
2022/08/17 09:15:47;;;;;;;10.00;8.77;;;;;;;44.78;13.59;99787.41;6230237;22;20090;-66
2022/08/17 09:18:22;;;;;;;11.77;9.65;;;;;;;44.03;13.45;99783.00;6203130;22;20016;-66
2022/08/17 09:20:54;;;;;;;9.68;8.68;;;;;;;43.49;14.11;99775.88;6203440;22;20022;-65
2022/08/17 09:23:44;;;;;;;11.57;8.27;;;;;;;44.06;14.13;99778.72;6203476;22;20019;-66
2022/08/17 09:26:36;;;;;;;12.73;8.88;;;;;;;44.91;13.70;99784.72;6203038;22;20522;-64
2022/08/17 09:29:07;;;;;;;15.03;9.10;;;;;;;44.84;13.43;99780.41;6177879;22;20066;-65
2022/08/17 09:31:40;;;;;;;10.32;9.30;;;;;;;44.89;13.18;99784.22;6230061;22;20242;-65
2022/08/17 09:34:14;;;;;;;12.85;9.60;;;;;;;44.74;13.47;99777.97;6230437;22;20027;-65
2022/08/17 09:37:01;;;;;;;14.35;9.25;;;;;;;45.54;13.28;99778.25;6230038;22;20023;-65
2022/08/17 09:39:29;;;;;;;11.40;9.68;;;;;;;45.55;12.52;99779.91;6203205;22;20015;-65
2022/08/17 09:42:15;;;;;;;19.48;9.70;;;;;;;45.89;12.95;99778.94;6202710;22;20011;-67
2022/08/17 09:44:54;;;;;;;11.18;10.05;;;;;;;46.80;11.81;99786.53;6230128;22;20366;-68
2022/08/17 09:47:29;;;;;;;12.05;10.18;;;;;;;45.62;12.62;99780.19;6229871;22;20043;-68
2022/08/17 09:50:02;;;;;;;11.77;8.75;;;;;;;44.89;12.46;99784.22;6177054;22;20016;-68
2022/08/17 09:52:30;;;;;;;12.52;10.02;;;;;;;44.49;13.05;99773.16;6203163;22;20077;-68
2022/08/17 09:54:58;;;;;;;10.00;8.57;;;;;;;45.30;12.70;99781.66;6229703;22;20015;-66
2022/08/17 09:57:41;;;;;;;11.75;9.00;;;;;;;44.89;12.55;99775.78;6229957;22;20019;-66
2022/08/17 10:00:15;;;;;;;10.43;9.32;;;;;;;43.31;14.29;99766.56;6187584;22;20007;-67
2022/08/17 10:02:55;;;;;;;10.65;8.50;;;;;;;43.02;14.44;99758.59;6212996;22;20371;-67
2022/08/17 10:05:27;;;;;;;9.80;8.43;;;;;;;43.43;14.19;99754.72;6205795;22;20051;-66
2022/08/17 10:08:11;;;;;;;10.70;8.45;;;;;;;43.69;14.28;99769.69;6202632;22;20020;-66
2022/08/17 10:10:57;;;;;;;16.52;8.43;;;;;;;43.30;14.67;99766.88;6202658;22;20038;-66
2022/08/17 10:13:40;;;;;;;12.95;8.90;;;;;;;42.91;14.92;99759.19;6202297;22;20015;-66
2022/08/17 10:16:17;;;;;;;11.52;9.05;;;;;;;43.03;14.55;99754.66;6203026;22;20454;-66
2022/08/17 10:18:55;;;;;;;9.27;8.20;;;;;;;43.18;14.51;99764.69;6229617;22;20016;-67
2022/08/17 10:27:00;;;;;;;15.57;7.90;;;;;;;40.23;16.82;99757.84;6177436;22;20055;-66
2022/08/17 10:29:41;;;;;;;11.55;7.50;;;;;;;38.12;18.41;99753.00;6229592;22;20023;-66
2022/08/17 10:32:11;;;;;;;11.60;7.68;;;;;;;36.31;20.29;99747.50;6229519;22;20015;-67
2022/08/17 10:34:46;;;;;;;12.18;7.35;;;;;;;35.38;21.35;99738.25;6202830;22;20022;-65
2022/08/17 10:37:29;;;;;;;10.80;7.38;;;;;;;34.32;22.55;99726.34;6202382;22;20020;-65
2022/08/17 10:40:12;;;;;;;;;;;;;;;34.64;21.75;99740.22;6230300;22;20460;-66
2022/08/17 10:42:56;;;;;;;12.05;7.82;;;;;;;33.68;23.57;99729.78;6239553;22;20414;-66
2022/08/17 10:45:28;;;;;;;10.30;6.82;;;;;;;33.07;24.08;99720.63;6239365;22;20095;-66
2022/08/17 10:48:02;;;;;;;9.68;7.20;;;;;;;32.79;24.32;99729.91;6239354;22;20022;-66
2022/08/17 10:51:06;;;;;;;12.82;7.32;;;;;;;32.10;25.16;99723.69;6150217;22;20111;-67
2022/08/17 10:53:31;;;;;;;10.63;9.23;;;;;;;31.60;27.07;99717.16;6201159;22;20014;-69
2022/08/17 10:56:11;;;;;;;10.05;7.35;;;;;;;31.74;26.09;99721.31;6235571;22;20023;-68
2022/08/17 10:58:48;;;;;;;15.32;7.15;;;;;;;31.59;26.42;99718.25;6175955;22;20014;-66
2022/08/17 11:01:13;;;;;;;8.57;6.40;;;;;;;31.32;26.73;99720.72;6228947;22;20016;-68
2022/08/17 11:03:55;;;;;;;15.95;7.28;;;;;;;31.07;26.45;99720.94;6176102;22;20086;-71
2022/08/17 11:06:30;;;;;;;15.55;8.40;;;;;;;30.66;27.53;99705.41;6229277;22;20023;-68
2022/08/17 11:09:14;;;;;;;14.07;7.82;;;;;;;30.51;27.73;99699.50;6202332;22;20045;-68
2022/08/17 11:11:54;;;;;;;11.63;7.20;;;;;;;30.48;28.24;99695.28;6202671;22;20026;-70
2022/08/17 11:14:47;;;;;;;10.82;7.05;;;;;;;30.54;28.13;99699.06;6201971;22;20091;-70
2022/08/17 11:17:30;;;;;;;12.82;8.13;;;;;;;30.54;28.10;99701.81;6201169;22;20019;-70
2022/08/17 11:20:07;;;;;;;12.90;7.55;;;;;;;30.33;28.39;99697.69;6201513;22;20020;-68
2022/08/17 11:23:19;;;;;;;13.27;7.63;;;;;;;30.07;28.32;99687.94;6238999;22;20023;-69
2022/08/17 11:25:52;;;;;;;12.15;7.07;;;;;;;29.96;29.03;99688.75;6201218;22;20410;-70
2022/08/17 11:28:27;;;;;;;11.98;7.95;;;;;;;29.94;28.91;99688.94;6201799;22;20095;-71
2022/08/17 11:30:56;;;;;;;10.30;7.60;;;;;;;29.92;30.13;99692.97;6176439;22;20098;-69
2022/08/17 11:33:35;;;;;;;13.68;8.40;;;;;;;30.00;29.27;99692.72;6228633;22;20102;-71
2022/08/17 11:36:25;;;;;;;16.40;7.45;;;;;;;30.11;28.69;99689.16;6228853;22;20024;-68
2022/08/17 11:39:27;;;;;;;13.55;8.40;;;;;;;30.09;29.09;99684.94;6201852;22;20324;-69
2022/08/17 11:42:15;;;;;;;13.68;7.63;;;;;;;30.08;29.09;99680.53;6202271;22;20018;-75
2022/08/17 11:44:57;;;;;;;13.57;8.73;;;;;;;30.11;28.66;99675.41;6201746;22;20027;-68
2022/08/17 11:53:36;;;;;;;14.40;7.85;;;;;;;30.20;28.54;99668.47;6228747;22;20477;-69
2022/08/17 11:56:08;;;;;;;10.00;7.78;;;;;;;30.06;29.03;99663.41;6202084;22;20161;-69
2022/08/17 11:58:43;;;;;;;15.15;9.55;;;;;;;30.02;28.90;99665.81;6228524;22;20018;-68
2022/08/17 12:01:12;;;;;;;13.25;8.65;;;;;;;29.92;28.67;99662.75;6202608;22;20020;-68
2022/08/17 12:03:37;;;;;;;9.93;8.15;;;;;;;29.96;29.01;99664.00;6229666;22;20078;-71
2022/08/17 12:06:21;;;;;;;18.65;8.77;;;;;;;30.15;28.51;99656.50;6228996;22;20027;-70
2022/08/17 12:08:53;;;;;;;12.20;8.35;;;;;;;30.05;28.82;99653.50;6176478;22;20122;-69
2022/08/17 12:11:38;;;;;;;9.88;7.93;;;;;;;30.08;28.54;99666.78;6229424;22;20016;-70
2022/08/17 12:14:05;;;;;;;17.27;9.07;;;;;;;30.02;29.01;99656.75;6231430;22;20027;-70